sensor_id;sensor_type;location;lat;lon;timestamp;P1;P2;P0
42410;PMS5003;28056;51.112;0.984;2023-07-02T00:04:46;31;24;
42410;PMS5003;28056;51.112;0.984;2023-07-02T00:07:14;28;22;
42410;PMS5003;28056;51.112;0.984;2023-07-02T00:09:41;33;30;
42410;PMS5003;28056;51.112;0.984;2023-07-02T00:12:09;29;27;
42410;PMS5003;28056;51.112;0.984;2023-07-02T00:14:37;33;27;
42410;PMS5003;28056;51.112;0.984;2023-07-02T00:17:04;34;29;
42410;PMS5003;28056;51.112;0.984;2023-07-02T00:19:31;28;23;
42410;PMS5003;28056;51.112;0.984;2023-07-02T00:21:58;30;25;
42410;PMS5003;28056;51.112;0.984;2023-07-02T00:24:26;39;34;
42410;PMS5003;28056;51.112;0.984;2023-07-02T00:26:54;24;24;
42410;PMS5003;28056;51.112;0.984;2023-07-02T00:29:21;38;29;
42410;PMS5003;28056;51.112;0.984;2023-07-02T00:31:48;31;27;
42410;PMS5003;28056;51.112;0.984;2023-07-02T00:34:16;30;26;
42410;PMS5003;28056;51.112;0.984;2023-07-02T00:36:43;41;30;
42410;PMS5003;28056;51.112;0.984;2023-07-02T00:39:11;37;32;
42410;PMS5003;28056;51.112;0.984;2023-07-02T00:41:38;39;29;
42410;PMS5003;28056;51.112;0.984;2023-07-02T00:44:05;31;26;
42410;PMS5003;28056;51.112;0.984;2023-07-02T00:46:33;26;25;
42410;PMS5003;28056;51.112;0.984;2023-07-02T00:49:00;34;31;
42410;PMS5003;28056;51.112;0.984;2023-07-02T00:51:30;35;33;
42410;PMS5003;28056;51.112;0.984;2023-07-02T00:53:58;37;26;
42410;PMS5003;28056;51.112;0.984;2023-07-02T00:56:26;37;31;
42410;PMS5003;28056;51.112;0.984;2023-07-02T00:58:54;38;26;
42410;PMS5003;28056;51.112;0.984;2023-07-02T01:01:23;33;30;
42410;PMS5003;28056;51.112;0.984;2023-07-02T01:03:52;43;30;
42410;PMS5003;28056;51.112;0.984;2023-07-02T01:06:22;36;29;
42410;PMS5003;28056;51.112;0.984;2023-07-02T01:08:51;31;28;
42410;PMS5003;28056;51.112;0.984;2023-07-02T01:11:21;32;31;
42410;PMS5003;28056;51.112;0.984;2023-07-02T01:13:52;37;25;
42410;PMS5003;28056;51.112;0.984;2023-07-02T01:16:22;37;29;
42410;PMS5003;28056;51.112;0.984;2023-07-02T01:18:49;36;30;
42410;PMS5003;28056;51.112;0.984;2023-07-02T01:21:19;37;29;
42410;PMS5003;28056;51.112;0.984;2023-07-02T01:23:48;36;31;
42410;PMS5003;28056;51.112;0.984;2023-07-02T01:26:15;36;31;
42410;PMS5003;28056;51.112;0.984;2023-07-02T01:28:42;36;29;
42410;PMS5003;28056;51.112;0.984;2023-07-02T01:31:10;31;28;
42410;PMS5003;28056;51.112;0.984;2023-07-02T01:33:37;29;28;
42410;PMS5003;28056;51.112;0.984;2023-07-02T01:36:04;40;34;
42410;PMS5003;28056;51.112;0.984;2023-07-02T01:38:32;30;28;
42410;PMS5003;28056;51.112;0.984;2023-07-02T01:40:59;30;29;
42410;PMS5003;28056;51.112;0.984;2023-07-02T01:43:27;34;30;
42410;PMS5003;28056;51.112;0.984;2023-07-02T01:45:55;41;30;
42410;PMS5003;28056;51.112;0.984;2023-07-02T01:48:22;49;35;
42410;PMS5003;28056;51.112;0.984;2023-07-02T01:50:50;40;33;
42410;PMS5003;28056;51.112;0.984;2023-07-02T01:53:17;35;31;
42410;PMS5003;28056;51.112;0.984;2023-07-02T01:55:45;35;33;
42410;PMS5003;28056;51.112;0.984;2023-07-02T01:58:12;35;27;
42410;PMS5003;28056;51.112;0.984;2023-07-02T02:00:39;29;24;
42410;PMS5003;28056;51.112;0.984;2023-07-02T02:03:07;30;27;
42410;PMS5003;28056;51.112;0.984;2023-07-02T02:05:35;40;34;
42410;PMS5003;28056;51.112;0.984;2023-07-02T02:08:02;30;30;
42410;PMS5003;28056;51.112;0.984;2023-07-02T02:10:30;36;28;
42410;PMS5003;28056;51.112;0.984;2023-07-02T02:12:58;31;28;
42410;PMS5003;28056;51.112;0.984;2023-07-02T02:15:25;29;28;
42410;PMS5003;28056;51.112;0.984;2023-07-02T02:17:53;24;22;
42410;PMS5003;28056;51.112;0.984;2023-07-02T02:20:20;36;27;
42410;PMS5003;28056;51.112;0.984;2023-07-02T02:22:47;32;26;
42410;PMS5003;28056;51.112;0.984;2023-07-02T02:25:14;41;35;
42410;PMS5003;28056;51.112;0.984;2023-07-02T02:27:41;40;34;
42410;PMS5003;28056;51.112;0.984;2023-07-02T02:30:09;41;34;
42410;PMS5003;28056;51.112;0.984;2023-07-02T02:32:37;47;34;
42410;PMS5003;28056;51.112;0.984;2023-07-02T02:35:05;42;37;
42410;PMS5003;28056;51.112;0.984;2023-07-02T02:37:33;27;26;
42410;PMS5003;28056;51.112;0.984;2023-07-02T02:40:02;30;29;
42410;PMS5003;28056;51.112;0.984;2023-07-02T02:42:30;39;31;
42410;PMS5003;28056;51.112;0.984;2023-07-02T02:44:57;32;24;
42410;PMS5003;28056;51.112;0.984;2023-07-02T02:47:25;29;26;
42410;PMS5003;28056;51.112;0.984;2023-07-02T02:49:52;36;29;
42410;PMS5003;28056;51.112;0.984;2023-07-02T02:52:20;39;33;
42410;PMS5003;28056;51.112;0.984;2023-07-02T02:54:47;35;27;
42410;PMS5003;28056;51.112;0.984;2023-07-02T02:57:16;34;32;
42410;PMS5003;28056;51.112;0.984;2023-07-02T02:59:44;29;28;
42410;PMS5003;28056;51.112;0.984;2023-07-02T03:02:11;30;27;
42410;PMS5003;28056;51.112;0.984;2023-07-02T03:04:38;37;32;
42410;PMS5003;28056;51.112;0.984;2023-07-02T03:07:06;37;25;
42410;PMS5003;28056;51.112;0.984;2023-07-02T03:09:34;42;32;
42410;PMS5003;28056;51.112;0.984;2023-07-02T03:12:01;39;33;
42410;PMS5003;28056;51.112;0.984;2023-07-02T03:14:29;34;26;
42410;PMS5003;28056;51.112;0.984;2023-07-02T03:16:57;39;29;
42410;PMS5003;28056;51.112;0.984;2023-07-02T03:19:25;29;29;
42410;PMS5003;28056;51.112;0.984;2023-07-02T03:21:53;29;27;
42410;PMS5003;28056;51.112;0.984;2023-07-02T03:24:25;31;26;
42410;PMS5003;28056;51.112;0.984;2023-07-02T03:26:52;29;27;
42410;PMS5003;28056;51.112;0.984;2023-07-02T03:29:19;35;32;
42410;PMS5003;28056;51.112;0.984;2023-07-02T03:31:46;32;27;
42410;PMS5003;28056;51.112;0.984;2023-07-02T03:34:14;32;28;
42410;PMS5003;28056;51.112;0.984;2023-07-02T03:36:41;34;27;
42410;PMS5003;28056;51.112;0.984;2023-07-02T03:39:08;28;25;
42410;PMS5003;28056;51.112;0.984;2023-07-02T03:41:35;44;34;
42410;PMS5003;28056;51.112;0.984;2023-07-02T03:44:03;35;28;
42410;PMS5003;28056;51.112;0.984;2023-07-02T03:46:31;32;27;
42410;PMS5003;28056;51.112;0.984;2023-07-02T03:48:58;39;33;
42410;PMS5003;28056;51.112;0.984;2023-07-02T03:51:25;34;28;
42410;PMS5003;28056;51.112;0.984;2023-07-02T03:53:53;28;25;
42410;PMS5003;28056;51.112;0.984;2023-07-02T03:56:20;29;28;
42410;PMS5003;28056;51.112;0.984;2023-07-02T03:58:48;33;27;
42410;PMS5003;28056;51.112;0.984;2023-07-02T04:01:16;32;26;
42410;PMS5003;28056;51.112;0.984;2023-07-02T04:03:47;36;31;
42410;PMS5003;28056;51.112;0.984;2023-07-02T04:06:16;38;32;
42410;PMS5003;28056;51.112;0.984;2023-07-02T04:08:44;27;25;
42410;PMS5003;28056;51.112;0.984;2023-07-02T04:11:11;32;26;
42410;PMS5003;28056;51.112;0.984;2023-07-02T04:13:39;31;28;
42410;PMS5003;28056;51.112;0.984;2023-07-02T04:16:07;38;30;
42410;PMS5003;28056;51.112;0.984;2023-07-02T04:18:34;33;23;
42410;PMS5003;28056;51.112;0.984;2023-07-02T04:21:02;39;28;
42410;PMS5003;28056;51.112;0.984;2023-07-02T04:23:30;37;30;
42410;PMS5003;28056;51.112;0.984;2023-07-02T04:25:57;38;31;
42410;PMS5003;28056;51.112;0.984;2023-07-02T04:28:24;30;28;
42410;PMS5003;28056;51.112;0.984;2023-07-02T04:30:51;34;31;
42410;PMS5003;28056;51.112;0.984;2023-07-02T04:33:18;38;29;
42410;PMS5003;28056;51.112;0.984;2023-07-02T04:35:45;38;28;
42410;PMS5003;28056;51.112;0.984;2023-07-02T04:38:13;26;22;
42410;PMS5003;28056;51.112;0.984;2023-07-02T04:40:41;34;29;
42410;PMS5003;28056;51.112;0.984;2023-07-02T04:43:09;33;27;
42410;PMS5003;28056;51.112;0.984;2023-07-02T04:45:36;35;29;
42410;PMS5003;28056;51.112;0.984;2023-07-02T04:48:04;28;23;
42410;PMS5003;28056;51.112;0.984;2023-07-02T04:50:31;30;27;
42410;PMS5003;28056;51.112;0.984;2023-07-02T04:52:59;36;29;
42410;PMS5003;28056;51.112;0.984;2023-07-02T04:55:27;34;28;
42410;PMS5003;28056;51.112;0.984;2023-07-02T04:57:55;38;29;
42410;PMS5003;28056;51.112;0.984;2023-07-02T05:00:23;34;31;
42410;PMS5003;28056;51.112;0.984;2023-07-02T05:02:50;28;24;
42410;PMS5003;28056;51.112;0.984;2023-07-02T05:05:18;29;27;
42410;PMS5003;28056;51.112;0.984;2023-07-02T05:07:45;40;33;
42410;PMS5003;28056;51.112;0.984;2023-07-02T05:10:13;27;24;
42410;PMS5003;28056;51.112;0.984;2023-07-02T05:12:41;31;28;
42410;PMS5003;28056;51.112;0.984;2023-07-02T05:15:09;29;22;
42410;PMS5003;28056;51.112;0.984;2023-07-02T05:17:37;32;30;
42410;PMS5003;28056;51.112;0.984;2023-07-02T05:20:05;29;23;
42410;PMS5003;28056;51.112;0.984;2023-07-02T05:22:33;32;25;
42410;PMS5003;28056;51.112;0.984;2023-07-02T05:25:00;34;27;
42410;PMS5003;28056;51.112;0.984;2023-07-02T05:27:28;34;27;
42410;PMS5003;28056;51.112;0.984;2023-07-02T05:29:55;23;22;
42410;PMS5003;28056;51.112;0.984;2023-07-02T05:32:22;32;28;
42410;PMS5003;28056;51.112;0.984;2023-07-02T05:34:49;30;23;
42410;PMS5003;28056;51.112;0.984;2023-07-02T05:37:17;31;24;
42410;PMS5003;28056;51.112;0.984;2023-07-02T05:39:44;31;28;
42410;PMS5003;28056;51.112;0.984;2023-07-02T05:42:12;26;21;
42410;PMS5003;28056;51.112;0.984;2023-07-02T05:44:39;28;23;
42410;PMS5003;28056;51.112;0.984;2023-07-02T05:47:07;22;18;
42410;PMS5003;28056;51.112;0.984;2023-07-02T05:49:34;29;23;
42410;PMS5003;28056;51.112;0.984;2023-07-02T05:52:02;25;20;
42410;PMS5003;28056;51.112;0.984;2023-07-02T05:54:30;23;19;
42410;PMS5003;28056;51.112;0.984;2023-07-02T05:56:57;19;19;
42410;PMS5003;28056;51.112;0.984;2023-07-02T05:59:24;26;21;
42410;PMS5003;28056;51.112;0.984;2023-07-02T06:01:51;25;19;
42410;PMS5003;28056;51.112;0.984;2023-07-02T06:04:19;25;18;
42410;PMS5003;28056;51.112;0.984;2023-07-02T06:06:46;27;22;
42410;PMS5003;28056;51.112;0.984;2023-07-02T06:09:13;22;19;
42410;PMS5003;28056;51.112;0.984;2023-07-02T06:11:41;24;19;
42410;PMS5003;28056;51.112;0.984;2023-07-02T06:14:08;29;19;
42410;PMS5003;28056;51.112;0.984;2023-07-02T06:16:35;19;19;
42410;PMS5003;28056;51.112;0.984;2023-07-02T06:19:03;21;18;
42410;PMS5003;28056;51.112;0.984;2023-07-02T06:21:30;25;24;
42410;PMS5003;28056;51.112;0.984;2023-07-02T06:23:57;23;20;
42410;PMS5003;28056;51.112;0.984;2023-07-02T06:26:27;29;21;
42410;PMS5003;28056;51.112;0.984;2023-07-02T06:28:55;19;16;
42410;PMS5003;28056;51.112;0.984;2023-07-02T06:31:22;17;16;
42410;PMS5003;28056;51.112;0.984;2023-07-02T06:33:49;16;16;
42410;PMS5003;28056;51.112;0.984;2023-07-02T06:36:16;17;14;
42410;PMS5003;28056;51.112;0.984;2023-07-02T06:38:43;15;12;
42410;PMS5003;28056;51.112;0.984;2023-07-02T06:41:11;18;17;
42410;PMS5003;28056;51.112;0.984;2023-07-02T06:43:38;20;16;
42410;PMS5003;28056;51.112;0.984;2023-07-02T06:46:05;28;24;
42410;PMS5003;28056;51.112;0.984;2023-07-02T06:48:33;24;19;
42410;PMS5003;28056;51.112;0.984;2023-07-02T06:51:01;22;14;
42410;PMS5003;28056;51.112;0.984;2023-07-02T06:53:28;17;12;
42410;PMS5003;28056;51.112;0.984;2023-07-02T06:55:55;19;14;
42410;PMS5003;28056;51.112;0.984;2023-07-02T06:58:22;19;14;
42410;PMS5003;28056;51.112;0.984;2023-07-02T07:00:50;17;15;
42410;PMS5003;28056;51.112;0.984;2023-07-02T07:03:17;20;13;
42410;PMS5003;28056;51.112;0.984;2023-07-02T07:05:45;13;13;
42410;PMS5003;28056;51.112;0.984;2023-07-02T07:08:13;22;12;
42410;PMS5003;28056;51.112;0.984;2023-07-02T07:10:40;14;11;
42410;PMS5003;28056;51.112;0.984;2023-07-02T07:13:07;15;12;
42410;PMS5003;28056;51.112;0.984;2023-07-02T07:15:35;13;11;
42410;PMS5003;28056;51.112;0.984;2023-07-02T07:18:02;14;13;
42410;PMS5003;28056;51.112;0.984;2023-07-02T07:20:31;15;12;
42410;PMS5003;28056;51.112;0.984;2023-07-02T07:22:58;19;16;
42410;PMS5003;28056;51.112;0.984;2023-07-02T07:25:25;16;13;
42410;PMS5003;28056;51.112;0.984;2023-07-02T07:27:53;16;14;
42410;PMS5003;28056;51.112;0.984;2023-07-02T07:30:20;13;13;
42410;PMS5003;28056;51.112;0.984;2023-07-02T07:32:47;13;12;
42410;PMS5003;28056;51.112;0.984;2023-07-02T07:35:15;8;8;
42410;PMS5003;28056;51.112;0.984;2023-07-02T07:37:43;13;11;
42410;PMS5003;28056;51.112;0.984;2023-07-02T07:40:11;14;12;
42410;PMS5003;28056;51.112;0.984;2023-07-02T07:42:39;17;11;
42410;PMS5003;28056;51.112;0.984;2023-07-02T07:45:07;11;11;
42410;PMS5003;28056;51.112;0.984;2023-07-02T07:47:36;11;11;
42410;PMS5003;28056;51.112;0.984;2023-07-02T07:50:05;16;11;
42410;PMS5003;28056;51.112;0.984;2023-07-02T07:52:34;18;15;
42410;PMS5003;28056;51.112;0.984;2023-07-02T07:55:01;15;12;
42410;PMS5003;28056;51.112;0.984;2023-07-02T07:57:28;14;13;
42410;PMS5003;28056;51.112;0.984;2023-07-02T07:59:56;13;9;
42410;PMS5003;28056;51.112;0.984;2023-07-02T08:02:24;18;13;
42410;PMS5003;28056;51.112;0.984;2023-07-02T08:04:51;17;13;
42410;PMS5003;28056;51.112;0.984;2023-07-02T08:07:18;15;8;
42410;PMS5003;28056;51.112;0.984;2023-07-02T08:09:46;12;8;
42410;PMS5003;28056;51.112;0.984;2023-07-02T08:12:14;15;12;
42410;PMS5003;28056;51.112;0.984;2023-07-02T08:14:41;10;10;
42410;PMS5003;28056;51.112;0.984;2023-07-02T08:17:09;11;11;
42410;PMS5003;28056;51.112;0.984;2023-07-02T08:19:36;14;12;
42410;PMS5003;28056;51.112;0.984;2023-07-02T08:22:04;9;8;
42410;PMS5003;28056;51.112;0.984;2023-07-02T08:24:32;9;7;
42410;PMS5003;28056;51.112;0.984;2023-07-02T08:26:59;12;9;
42410;PMS5003;28056;51.112;0.984;2023-07-02T08:29:27;16;13;
42410;PMS5003;28056;51.112;0.984;2023-07-02T08:31:55;12;9;
42410;PMS5003;28056;51.112;0.984;2023-07-02T08:34:22;12;11;
42410;PMS5003;28056;51.112;0.984;2023-07-02T08:36:49;11;8;
42410;PMS5003;28056;51.112;0.984;2023-07-02T08:39:17;9;6;
42410;PMS5003;28056;51.112;0.984;2023-07-02T08:41:45;10;6;
42410;PMS5003;28056;51.112;0.984;2023-07-02T08:44:13;13;8;
42410;PMS5003;28056;51.112;0.984;2023-07-02T08:46:41;10;9;
42410;PMS5003;28056;51.112;0.984;2023-07-02T08:49:10;8;5;
42410;PMS5003;28056;51.112;0.984;2023-07-02T08:51:37;11;8;
42410;PMS5003;28056;51.112;0.984;2023-07-02T08:54:05;5;5;
42410;PMS5003;28056;51.112;0.984;2023-07-02T08:56:32;6;6;
42410;PMS5003;28056;51.112;0.984;2023-07-02T08:59:00;8;7;
42410;PMS5003;28056;51.112;0.984;2023-07-02T09:01:27;8;7;
42410;PMS5003;28056;51.112;0.984;2023-07-02T09:03:58;5;5;
42410;PMS5003;28056;51.112;0.984;2023-07-02T09:06:26;7;7;
42410;PMS5003;28056;51.112;0.984;2023-07-02T09:09:03;11;8;
42410;PMS5003;28056;51.112;0.984;2023-07-02T09:11:30;6;6;
42410;PMS5003;28056;51.112;0.984;2023-07-02T09:13:58;7;6;
42410;PMS5003;28056;51.112;0.984;2023-07-02T09:16:26;8;8;
42410;PMS5003;28056;51.112;0.984;2023-07-02T09:18:58;9;7;
42410;PMS5003;28056;51.112;0.984;2023-07-02T09:21:26;11;6;
42410;PMS5003;28056;51.112;0.984;2023-07-02T09:23:54;7;7;
42410;PMS5003;28056;51.112;0.984;2023-07-02T09:26:22;7;6;
42410;PMS5003;28056;51.112;0.984;2023-07-02T09:28:50;6;6;
42410;PMS5003;28056;51.112;0.984;2023-07-02T09:31:26;11;8;
42410;PMS5003;28056;51.112;0.984;2023-07-02T09:34:00;11;8;
42410;PMS5003;28056;51.112;0.984;2023-07-02T09:36:28;10;6;
42410;PMS5003;28056;51.112;0.984;2023-07-02T09:38:55;8;7;
42410;PMS5003;28056;51.112;0.984;2023-07-02T09:41:23;7;7;
42410;PMS5003;28056;51.112;0.984;2023-07-02T09:43:51;8;8;
42410;PMS5003;28056;51.112;0.984;2023-07-02T09:46:18;9;7;
42410;PMS5003;28056;51.112;0.984;2023-07-02T09:48:46;10;7;
42410;PMS5003;28056;51.112;0.984;2023-07-02T09:51:14;11;8;
42410;PMS5003;28056;51.112;0.984;2023-07-02T09:53:42;7;7;
42410;PMS5003;28056;51.112;0.984;2023-07-02T09:56:09;11;7;
42410;PMS5003;28056;51.112;0.984;2023-07-02T09:58:38;8;5;
42410;PMS5003;28056;51.112;0.984;2023-07-02T10:01:05;10;10;
42410;PMS5003;28056;51.112;0.984;2023-07-02T10:03:33;11;7;
42410;PMS5003;28056;51.112;0.984;2023-07-02T10:06:04;12;9;
42410;PMS5003;28056;51.112;0.984;2023-07-02T10:08:32;7;6;
42410;PMS5003;28056;51.112;0.984;2023-07-02T10:11:07;12;8;
42410;PMS5003;28056;51.112;0.984;2023-07-02T10:13:36;12;11;
42410;PMS5003;28056;51.112;0.984;2023-07-02T10:16:04;9;8;
42410;PMS5003;28056;51.112;0.984;2023-07-02T10:18:33;10;5;
42410;PMS5003;28056;51.112;0.984;2023-07-02T10:21:00;10;7;
42410;PMS5003;28056;51.112;0.984;2023-07-02T10:23:38;10;8;
42410;PMS5003;28056;51.112;0.984;2023-07-02T10:26:10;11;8;
42410;PMS5003;28056;51.112;0.984;2023-07-02T10:28:40;8;7;
42410;PMS5003;28056;51.112;0.984;2023-07-02T10:31:17;10;9;
42410;PMS5003;28056;51.112;0.984;2023-07-02T10:33:46;9;6;
42410;PMS5003;28056;51.112;0.984;2023-07-02T10:36:17;8;7;
42410;PMS5003;28056;51.112;0.984;2023-07-02T10:38:46;8;8;
42410;PMS5003;28056;51.112;0.984;2023-07-02T10:41:22;9;8;
42410;PMS5003;28056;51.112;0.984;2023-07-02T10:43:50;11;8;
42410;PMS5003;28056;51.112;0.984;2023-07-02T10:46:18;10;8;
42410;PMS5003;28056;51.112;0.984;2023-07-02T10:48:54;9;7;
42410;PMS5003;28056;51.112;0.984;2023-07-02T10:51:22;9;8;
42410;PMS5003;28056;51.112;0.984;2023-07-02T10:53:57;15;10;
42410;PMS5003;28056;51.112;0.984;2023-07-02T10:56:25;10;9;
42410;PMS5003;28056;51.112;0.984;2023-07-02T10:58:53;9;6;
42410;PMS5003;28056;51.112;0.984;2023-07-02T11:01:22;11;10;
42410;PMS5003;28056;51.112;0.984;2023-07-02T11:03:59;8;8;
42410;PMS5003;28056;51.112;0.984;2023-07-02T11:06:27;10;7;
42410;PMS5003;28056;51.112;0.984;2023-07-02T11:08:55;7;6;
42410;PMS5003;28056;51.112;0.984;2023-07-02T11:11:22;9;8;
42410;PMS5003;28056;51.112;0.984;2023-07-02T11:13:51;12;9;
42410;PMS5003;28056;51.112;0.984;2023-07-02T11:16:20;5;5;
42410;PMS5003;28056;51.112;0.984;2023-07-02T11:18:50;9;8;
42410;PMS5003;28056;51.112;0.984;2023-07-02T11:21:18;10;6;
42410;PMS5003;28056;51.112;0.984;2023-07-02T11:23:45;11;8;
42410;PMS5003;28056;51.112;0.984;2023-07-02T11:26:12;9;7;
42410;PMS5003;28056;51.112;0.984;2023-07-02T11:28:50;7;7;
42410;PMS5003;28056;51.112;0.984;2023-07-02T11:31:25;12;7;
42410;PMS5003;28056;51.112;0.984;2023-07-02T11:33:53;11;8;
42410;PMS5003;28056;51.112;0.984;2023-07-02T11:36:20;14;9;
42410;PMS5003;28056;51.112;0.984;2023-07-02T11:38:49;11;8;
42410;PMS5003;28056;51.112;0.984;2023-07-02T11:41:18;7;5;
42410;PMS5003;28056;51.112;0.984;2023-07-02T11:43:46;8;7;
42410;PMS5003;28056;51.112;0.984;2023-07-02T11:46:13;6;4;
42410;PMS5003;28056;51.112;0.984;2023-07-02T11:48:41;8;7;
42410;PMS5003;28056;51.112;0.984;2023-07-02T11:51:08;8;8;
42410;PMS5003;28056;51.112;0.984;2023-07-02T11:53:36;8;7;
42410;PMS5003;28056;51.112;0.984;2023-07-02T11:56:03;6;6;
42410;PMS5003;28056;51.112;0.984;2023-07-02T11:58:30;9;7;
42410;PMS5003;28056;51.112;0.984;2023-07-02T12:00:58;9;7;
42410;PMS5003;28056;51.112;0.984;2023-07-02T12:03:25;8;8;
42410;PMS5003;28056;51.112;0.984;2023-07-02T12:05:52;10;6;
42410;PMS5003;28056;51.112;0.984;2023-07-02T12:08:20;8;7;
42410;PMS5003;28056;51.112;0.984;2023-07-02T12:10:48;8;8;
42410;PMS5003;28056;51.112;0.984;2023-07-02T12:13:15;6;6;
42410;PMS5003;28056;51.112;0.984;2023-07-02T12:15:43;10;6;
42410;PMS5003;28056;51.112;0.984;2023-07-02T12:18:10;6;6;
42410;PMS5003;28056;51.112;0.984;2023-07-02T12:20:38;8;7;
42410;PMS5003;28056;51.112;0.984;2023-07-02T12:23:06;9;7;
42410;PMS5003;28056;51.112;0.984;2023-07-02T12:25:33;9;7;
42410;PMS5003;28056;51.112;0.984;2023-07-02T12:28:01;7;6;
42410;PMS5003;28056;51.112;0.984;2023-07-02T12:30:29;7;7;
42410;PMS5003;28056;51.112;0.984;2023-07-02T12:32:56;8;7;
42410;PMS5003;28056;51.112;0.984;2023-07-02T12:35:24;10;8;
42410;PMS5003;28056;51.112;0.984;2023-07-02T12:37:51;9;9;
42410;PMS5003;28056;51.112;0.984;2023-07-02T12:40:20;9;8;
42410;PMS5003;28056;51.112;0.984;2023-07-02T12:42:47;9;8;
42410;PMS5003;28056;51.112;0.984;2023-07-02T12:45:15;5;5;
42410;PMS5003;28056;51.112;0.984;2023-07-02T12:47:43;9;8;
42410;PMS5003;28056;51.112;0.984;2023-07-02T12:50:11;7;7;
42410;PMS5003;28056;51.112;0.984;2023-07-02T12:52:39;6;6;
42410;PMS5003;28056;51.112;0.984;2023-07-02T12:55:07;8;8;
42410;PMS5003;28056;51.112;0.984;2023-07-02T12:57:35;6;5;
42410;PMS5003;28056;51.112;0.984;2023-07-02T13:00:03;9;7;
42410;PMS5003;28056;51.112;0.984;2023-07-02T13:02:31;7;7;
42410;PMS5003;28056;51.112;0.984;2023-07-02T13:04:59;7;5;
42410;PMS5003;28056;51.112;0.984;2023-07-02T13:07:27;8;7;
42410;PMS5003;28056;51.112;0.984;2023-07-02T13:09:55;8;8;
42410;PMS5003;28056;51.112;0.984;2023-07-02T13:12:23;7;6;
42410;PMS5003;28056;51.112;0.984;2023-07-02T13:14:50;11;8;
42410;PMS5003;28056;51.112;0.984;2023-07-02T13:17:18;9;8;
42410;PMS5003;28056;51.112;0.984;2023-07-02T13:19:45;8;6;
42410;PMS5003;28056;51.112;0.984;2023-07-02T13:22:13;6;6;
42410;PMS5003;28056;51.112;0.984;2023-07-02T13:24:40;7;6;
42410;PMS5003;28056;51.112;0.984;2023-07-02T13:27:12;9;7;
42410;PMS5003;28056;51.112;0.984;2023-07-02T13:29:42;9;6;
42410;PMS5003;28056;51.112;0.984;2023-07-02T13:32:10;5;5;
42410;PMS5003;28056;51.112;0.984;2023-07-02T13:34:37;11;8;
42410;PMS5003;28056;51.112;0.984;2023-07-02T13:37:05;10;7;
42410;PMS5003;28056;51.112;0.984;2023-07-02T13:39:32;10;9;
42410;PMS5003;28056;51.112;0.984;2023-07-02T13:42:00;10;7;
42410;PMS5003;28056;51.112;0.984;2023-07-02T13:44:27;8;7;
42410;PMS5003;28056;51.112;0.984;2023-07-02T13:46:54;5;5;
42410;PMS5003;28056;51.112;0.984;2023-07-02T13:49:21;7;6;
42410;PMS5003;28056;51.112;0.984;2023-07-02T13:51:49;8;5;
42410;PMS5003;28056;51.112;0.984;2023-07-02T13:54:17;9;8;
42410;PMS5003;28056;51.112;0.984;2023-07-02T13:56:46;6;5;
42410;PMS5003;28056;51.112;0.984;2023-07-02T13:59:15;6;6;
42410;PMS5003;28056;51.112;0.984;2023-07-02T14:01:43;6;5;
42410;PMS5003;28056;51.112;0.984;2023-07-02T14:04:11;5;5;
42410;PMS5003;28056;51.112;0.984;2023-07-02T14:06:39;6;6;
42410;PMS5003;28056;51.112;0.984;2023-07-02T14:09:07;6;4;
42410;PMS5003;28056;51.112;0.984;2023-07-02T14:11:37;7;6;
42410;PMS5003;28056;51.112;0.984;2023-07-02T14:14:05;6;6;
42410;PMS5003;28056;51.112;0.984;2023-07-02T14:16:33;5;5;
42410;PMS5003;28056;51.112;0.984;2023-07-02T14:19:02;4;4;
42410;PMS5003;28056;51.112;0.984;2023-07-02T14:21:29;4;4;
42410;PMS5003;28056;51.112;0.984;2023-07-02T14:23:57;11;7;
42410;PMS5003;28056;51.112;0.984;2023-07-02T14:26:25;7;7;
42410;PMS5003;28056;51.112;0.984;2023-07-02T14:28:52;8;8;
42410;PMS5003;28056;51.112;0.984;2023-07-02T14:31:20;8;6;
42410;PMS5003;28056;51.112;0.984;2023-07-02T14:33:47;9;6;
42410;PMS5003;28056;51.112;0.984;2023-07-02T14:36:14;5;5;
42410;PMS5003;28056;51.112;0.984;2023-07-02T14:38:42;6;6;
42410;PMS5003;28056;51.112;0.984;2023-07-02T14:41:09;9;7;
42410;PMS5003;28056;51.112;0.984;2023-07-02T14:43:37;7;5;
42410;PMS5003;28056;51.112;0.984;2023-07-02T14:46:04;7;4;
42410;PMS5003;28056;51.112;0.984;2023-07-02T14:48:32;6;6;
42410;PMS5003;28056;51.112;0.984;2023-07-02T14:51:00;6;6;
42410;PMS5003;28056;51.112;0.984;2023-07-02T14:53:29;5;5;
42410;PMS5003;28056;51.112;0.984;2023-07-02T14:55:58;9;7;
42410;PMS5003;28056;51.112;0.984;2023-07-02T14:58:28;8;7;
42410;PMS5003;28056;51.112;0.984;2023-07-02T15:00:57;7;6;
42410;PMS5003;28056;51.112;0.984;2023-07-02T15:03:25;5;5;
42410;PMS5003;28056;51.112;0.984;2023-07-02T15:05:54;7;5;
42410;PMS5003;28056;51.112;0.984;2023-07-02T15:08:31;8;6;
42410;PMS5003;28056;51.112;0.984;2023-07-02T15:10:59;10;9;
42410;PMS5003;28056;51.112;0.984;2023-07-02T15:13:27;7;7;
42410;PMS5003;28056;51.112;0.984;2023-07-02T15:15:55;11;6;
42410;PMS5003;28056;51.112;0.984;2023-07-02T15:18:22;7;7;
42410;PMS5003;28056;51.112;0.984;2023-07-02T15:20:50;9;8;
42410;PMS5003;28056;51.112;0.984;2023-07-02T15:23:18;13;9;
42410;PMS5003;28056;51.112;0.984;2023-07-02T15:25:49;11;10;
42410;PMS5003;28056;51.112;0.984;2023-07-02T15:28:17;12;10;
42410;PMS5003;28056;51.112;0.984;2023-07-02T15:30:45;10;10;
42410;PMS5003;28056;51.112;0.984;2023-07-02T15:33:13;13;12;
42410;PMS5003;28056;51.112;0.984;2023-07-02T15:35:40;14;12;
42410;PMS5003;28056;51.112;0.984;2023-07-02T15:38:08;9;8;
42410;PMS5003;28056;51.112;0.984;2023-07-02T15:40:35;7;5;
42410;PMS5003;28056;51.112;0.984;2023-07-02T15:43:03;8;5;
42410;PMS5003;28056;51.112;0.984;2023-07-02T15:45:30;6;6;
42410;PMS5003;28056;51.112;0.984;2023-07-02T15:47:57;9;8;
42410;PMS5003;28056;51.112;0.984;2023-07-02T15:50:25;10;6;
42410;PMS5003;28056;51.112;0.984;2023-07-02T15:52:53;12;7;
42410;PMS5003;28056;51.112;0.984;2023-07-02T15:55:20;9;6;
42410;PMS5003;28056;51.112;0.984;2023-07-02T15:57:49;8;6;
42410;PMS5003;28056;51.112;0.984;2023-07-02T16:00:17;6;6;
42410;PMS5003;28056;51.112;0.984;2023-07-02T16:02:44;6;5;
42410;PMS5003;28056;51.112;0.984;2023-07-02T16:05:12;7;6;
42410;PMS5003;28056;51.112;0.984;2023-07-02T16:07:39;8;5;
42410;PMS5003;28056;51.112;0.984;2023-07-02T16:10:08;10;5;
42410;PMS5003;28056;51.112;0.984;2023-07-02T16:12:36;6;6;
42410;PMS5003;28056;51.112;0.984;2023-07-02T16:15:04;9;8;
42410;PMS5003;28056;51.112;0.984;2023-07-02T16:17:32;5;4;
42410;PMS5003;28056;51.112;0.984;2023-07-02T16:19:59;7;7;
42410;PMS5003;28056;51.112;0.984;2023-07-02T16:22:27;13;6;
42410;PMS5003;28056;51.112;0.984;2023-07-02T16:24:55;8;5;
42410;PMS5003;28056;51.112;0.984;2023-07-02T16:27:25;9;6;
42410;PMS5003;28056;51.112;0.984;2023-07-02T16:29:52;5;5;
42410;PMS5003;28056;51.112;0.984;2023-07-02T16:32:20;6;5;
42410;PMS5003;28056;51.112;0.984;2023-07-02T16:34:47;13;7;
42410;PMS5003;28056;51.112;0.984;2023-07-02T16:37:15;5;5;
42410;PMS5003;28056;51.112;0.984;2023-07-02T16:39:42;7;7;